Time;durP1;ratioP1;P1;durP2;ratioP2;P2;SDS_P1;SDS_P2;PMS_P1;PMS_P2;Temp;Humidity;BMP_temperature;BMP_pressure;BME280_temperature;BME280_humidity;BME280_pressure;Samples;Min_cycle;Max_cycle;Signal;HPM_P1;HPM_P2
2022/12/16 00:01:33;;;;;;;;;;;;;;;3.13;83.39;100989.00;7352697;19;19927;-68
2022/12/16 00:04:00;;;;;;;;;;;;;;;3.08;83.27;100985.88;7353532;19;19929;-66
2022/12/16 00:06:29;;;;;;;;;;;;;;;3.07;83.47;100997.22;7350506;19;19942;-65
2022/12/16 00:08:55;;;;;;;;;;;;;;;3.06;83.20;100998.13;7353199;19;19946;-66
2022/12/16 00:11:22;;;;;;;;;;;;;;;3.03;83.53;100987.97;7350404;19;19914;-65
2022/12/16 00:13:49;;;;;;;;;;;;;;;3.02;83.87;101000.09;7352770;19;20258;-67
2022/12/16 00:16:18;;;;;;;;;;;;;;;3.00;83.72;100995.00;7352208;19;19934;-66
2022/12/16 00:18:45;;;;;;;;;;;;;;;2.99;83.72;101002.94;7349450;19;20684;-67
2022/12/16 00:21:12;;;;;;;;;;;;;;;2.98;84.05;100996.88;7350185;19;19930;-65
2022/12/16 00:23:40;;;;;;;;;;;;;;;2.97;83.79;100997.81;7349385;19;19926;-65
2022/12/16 00:26:07;;;;;;;;;;;;;;;2.97;83.86;101000.41;7351306;19;20492;-65
2022/12/16 00:28:34;;;;;;;;;;;;;;;2.98;83.88;100994.28;7351730;19;20316;-66
2022/12/16 00:31:01;;;;;;;;;;;;;;;2.98;83.71;100996.88;7350310;19;19929;-66
2022/12/16 00:33:27;;;;;;;;;;;;;;;2.98;83.37;100996.88;7348935;19;20141;-65
2022/12/16 00:35:55;;;;;;;;;;;;;;;2.96;83.58;100990.94;7346800;19;20791;-66
2022/12/16 00:38:22;;;;;;;;;;;;;;;2.96;83.43;100988.34;7351584;19;19931;-65
2022/12/16 00:40:49;;;;;;;;;;;;;;;2.95;83.47;100994.47;7350446;19;19922;-66
2022/12/16 00:43:19;;;;;;;;;;;;;;;2.95;83.80;100994.47;7351110;19;19942;-65
2022/12/16 00:45:46;;;;;;;;;;;;;;;2.96;83.63;100995.31;7349748;19;20622;-66
2022/12/16 00:48:13;;;;;;;;;;;;;;;2.97;83.50;100995.22;7353054;19;20686;-65
2022/12/16 00:50:39;;;;;;;;;;;;;;;2.95;83.70;100997.06;7348956;19;21585;-66
2022/12/16 00:53:06;;;;;;;;;;;;;;;2.95;83.62;100991.88;7349920;19;20019;-66
2022/12/16 00:55:33;;;;;;;;;;;;;;;2.95;83.52;100984.09;7347406;19;19930;-68
2022/12/16 00:58:00;;;;;;;;;;;;;;;2.97;83.24;100984.00;7350811;19;19980;-66
2022/12/16 01:00:26;;;;;;;;;;;;;;;2.94;83.27;100977.25;7351296;19;20378;-66
2022/12/16 01:02:53;;;;;;;;;;;;;;;2.93;83.23;100982.53;7350862;19;19930;-66
2022/12/16 01:05:25;;;;;;;;;;;;;;;2.93;83.56;100990.31;7348413;19;19930;-66
2022/12/16 01:07:53;;;;;;;;;;;;;;;2.91;83.26;100986.97;7348068;19;21208;-65
2022/12/16 01:10:20;;;;;;;;;;;;;;;2.89;83.43;100994.06;7349219;19;19937;-66
2022/12/16 01:12:47;;;;;;;;;;;;;;;2.89;83.43;100991.47;7350410;19;20256;-66
2022/12/16 01:15:13;;;;;;;;;;;;;;;2.88;83.68;100989.78;7348877;19;20386;-65
2022/12/16 01:17:41;;;;;;;;;;;;;;;2.88;83.21;100997.59;7350017;19;19950;-66
2022/12/16 01:20:08;;;;;;;;;;;;;;;2.87;83.61;100990.72;7348605;19;19914;-65
2022/12/16 01:22:35;;;;;;;;;;;;;;;2.88;83.58;100988.03;7346979;19;19915;-65
2022/12/16 01:25:02;;;;;;;;;;;;;;;2.87;83.23;100988.97;7349814;19;19941;-66
2022/12/16 01:27:29;;;;;;;;;;;;;;;2.87;83.58;100994.16;7351073;19;20064;-65
2022/12/16 01:29:56;;;;;;;;;;;;;;;2.86;83.59;100999.44;7346709;19;19926;-66
2022/12/16 01:32:23;;;;;;;;;;;;;;;2.87;83.43;101006.31;7346495;19;19922;-68
2022/12/16 01:34:50;;;;;;;;;;;;;;;2.87;83.76;101009.75;7344139;19;20441;-65
2022/12/16 01:37:21;;;;;;;;;;;;;;;2.87;83.58;101014.09;7346188;19;19923;-65
2022/12/16 01:39:49;;;;;;;;;;;;;;;2.88;83.85;101016.59;7348787;19;19930;-66
2022/12/16 01:42:18;;;;;;;;;;;;;;;2.89;84.43;101018.28;7350408;19;20015;-66
2022/12/16 01:44:47;;;;;;;;;;;;;;;2.91;84.03;101020.75;7349894;19;19922;-66
2022/12/16 01:47:19;;;;;;;;;;;;;;;2.91;83.66;101021.59;7350321;19;20657;-65
2022/12/16 01:49:51;;;;;;;;;;;;;;;2.90;83.96;101026.88;7347699;19;19926;-65
2022/12/16 01:52:24;;;;;;;;;;;;;;;2.90;83.68;101032.91;7347914;19;19930;-65
2022/12/16 01:54:55;;;;;;;;;;;;;;;2.90;83.48;101039.88;7346604;19;20367;-65
2022/12/16 01:57:25;;;;;;;;;;;;;;;2.89;83.49;101044.25;7346544;19;19945;-65
2022/12/16 01:59:54;;;;;;;;;;;;;;;2.88;83.44;101045.19;7349567;19;19995;-65
2022/12/16 02:02:21;;;;;;;;;;;;;;;2.86;83.72;101049.63;7352523;19;20251;-66
2022/12/16 02:08:11;;;;;;;;;;;;;;;2.86;83.86;101064.38;7351387;19;20166;-65
2022/12/16 02:10:43;;;;;;;;;;;;;;;2.85;84.08;101062.72;7353710;19;19945;-65
2022/12/16 02:13:34;;;;;;;;;;;;;;;2.86;84.19;101072.19;7354036;19;19938;-66
2022/12/16 02:16:04;;;;;;;;;;;;;;;2.85;84.39;101062.72;7355262;19;19953;-65
2022/12/16 02:18:37;;;;;;;;;;;;;;;2.84;84.29;101058.47;7356054;19;19930;-65
2022/12/16 02:21:12;;;;;;;;;;;;;;;2.82;84.22;101070.72;7352945;19;19953;-65
2022/12/16 02:23:57;;;;;;;;;;;;;;;2.82;84.09;101070.72;7354218;19;20395;-65
2022/12/16 02:26:24;;;;;;;;;;;;;;;2.81;84.42;101064.69;7354505;19;19917;-67
2022/12/16 02:29:03;;;;;;;;;;;;;;;2.81;84.40;101077.66;7354717;19;20137;-65
2022/12/16 02:31:35;;;;;;;;;;;;;;;2.80;84.24;101069.97;7353674;19;20240;-65
2022/12/16 02:34:02;;;;;;;;;;;;;;;2.79;84.06;101069.16;7354356;19;20331;-65
2022/12/16 02:36:41;;;;;;;;;;;;;;;2.81;83.87;101072.47;7351511;19;20347;-67
2022/12/16 02:39:20;;;;;;;;;;;;;;;2.77;84.07;101067.56;7353349;19;19919;-66
2022/12/16 02:41:53;;;;;;;;;;;;;;;2.76;83.36;101069.34;7355521;19;19950;-66
2022/12/16 02:44:25;;;;;;;;;;;;;;;2.74;83.81;101070.38;7355253;19;20395;-66
2022/12/16 02:46:53;;;;;;;;;;;;;;;2.69;83.44;101070.66;7356171;19;20548;-65
2022/12/16 02:49:20;;;;;;;;;;;;;;;2.65;83.57;101070.94;7350803;19;19918;-64
2022/12/16 02:51:48;;;;;;;;;;;;;;;2.62;83.77;101069.38;7350479;19;21157;-67
2022/12/16 02:54:16;;;;;;;;;;;;;;;2.58;83.95;101071.34;7353369;19;19954;-67
2022/12/16 02:56:45;;;;;;;;;;;;;;;2.59;84.46;101074.78;7353903;19;19919;-65
2022/12/16 02:59:17;;;;;;;;;;;;;;;2.56;84.28;101077.53;7352490;19;19927;-65
2022/12/16 03:01:47;;;;;;;;;;;;;;;2.55;84.38;101073.28;7352551;19;19923;-65
2022/12/16 03:04:18;;;;;;;;;;;;;;;2.53;84.24;101083.78;7354727;19;19934;-65
2022/12/16 03:06:48;;;;;;;;;;;;;;;2.53;84.85;101096.75;7351056;19;20279;-65
2022/12/16 03:09:16;;;;;;;;;;;;;;;2.55;84.87;101088.84;7355204;19;19946;-66
2022/12/16 03:11:44;;;;;;;;;;;;;;;2.55;84.80;101087.09;7353212;19;19923;-65
2022/12/16 03:14:13;;;;;;;;;;;;;;;2.57;84.63;101092.19;7352557;19;19990;-65
2022/12/16 03:16:40;;;;;;;;;;;;;;;2.56;84.76;101099.16;7354086;19;20466;-67
2022/12/16 03:19:10;;;;;;;;;;;;;;;2.57;84.67;101110.38;7352652;19;19923;-65
2022/12/16 03:21:41;;;;;;;;;;;;;;;2.56;84.79;101103.50;7351376;19;19947;-65
2022/12/16 03:24:09;;;;;;;;;;;;;;;2.55;84.92;101115.66;7353607;19;19957;-66
2022/12/16 03:26:42;;;;;;;;;;;;;;;2.57;84.75;101107.78;7352675;19;19922;-65
2022/12/16 03:29:18;;;;;;;;;;;;;;;2.56;84.81;101104.34;7353492;19;20639;-66
2022/12/16 03:31:51;;;;;;;;;;;;;;;2.59;84.45;101122.31;7350079;19;20293;-66
2022/12/16 03:34:20;;;;;;;;;;;;;;;2.60;84.64;101107.56;7352078;19;19915;-66
2022/12/16 03:36:50;;;;;;;;;;;;;;;2.59;84.35;101109.34;7348747;19;20323;-65
2022/12/16 03:39:19;;;;;;;;;;;;;;;2.57;84.60;101100.00;7353809;19;19918;-66
2022/12/16 03:41:48;;;;;;;;;;;;;;;2.57;84.45;101106.03;7353076;19;20474;-66
2022/12/16 03:44:16;;;;;;;;;;;;;;;2.54;84.66;101105.34;7352584;19;19919;-66
2022/12/16 03:46:42;;;;;;;;;;;;;;;2.52;84.39;101107.22;7350496;19;20017;-65
2022/12/16 03:49:09;;;;;;;;;;;;;;;2.50;84.66;101114.25;7353213;19;19975;-64
2022/12/16 03:51:36;;;;;;;;;;;;;;;2.48;84.79;101104.00;7348766;19;19955;-66
2022/12/16 03:54:03;;;;;;;;;;;;;;;2.50;84.99;101111.66;7353031;19;19938;-65
2022/12/16 03:56:29;;;;;;;;;;;;;;;2.49;84.78;101105.63;7352482;19;19945;-66
2022/12/16 03:58:56;;;;;;;;;;;;;;;2.49;85.13;101112.59;7354366;19;19918;-66
2022/12/16 04:01:23;;;;;;;;;;;;;;;2.50;84.88;101114.25;7352476;19;19919;-66
2022/12/16 04:03:50;;;;;;;;;;;;;;;2.51;84.94;101119.38;7351883;19;20264;-65
2022/12/16 04:06:17;;;;;;;;;;;;;;;2.51;85.09;101121.13;7346529;19;19921;-66
2022/12/16 04:08:47;;;;;;;;;;;;;;;2.49;85.12;101116.03;7352377;19;19938;-65
2022/12/16 04:25:19;;;;;;;;;;;;;;;2.47;85.44;101132.66;7352270;19;19926;-67
2022/12/16 04:27:46;;;;;;;;;;;;;;;2.47;85.28;101123.09;7351776;19;19941;-66
2022/12/16 04:30:19;;;;;;;;;;;;;;;2.47;85.56;101130.03;7351699;19;19934;-65
